sensor_id;sensor_type;location;lat;lon;timestamp;P1;durP1;ratioP1;P2;durP2;ratioP2
18210;SDS011;9231;48.852;9.882;2023-04-21T00:00:08;682.30;;;27.40;;
18210;SDS011;9231;48.852;9.882;2023-04-21T00:02:34;409.53;;;22.43;;
18210;SDS011;9231;48.852;9.882;2023-04-21T00:05:03;197.60;;;18.90;;
18210;SDS011;9231;48.852;9.882;2023-04-21T00:07:33;473.23;;;22.30;;
18210;SDS011;9231;48.852;9.882;2023-04-21T00:10:01;449.83;;;26.20;;
18210;SDS011;9231;48.852;9.882;2023-04-21T00:12:29;580.40;;;25.77;;
18210;SDS011;9231;48.852;9.882;2023-04-21T00:14:55;391.27;;;21.77;;
18210;SDS011;9231;48.852;9.882;2023-04-21T00:17:23;293.00;;;18.90;;
18210;SDS011;9231;48.852;9.882;2023-04-21T00:19:49;221.73;;;17.10;;
18210;SDS011;9231;48.852;9.882;2023-04-21T00:22:16;581.10;;;30.60;;
18210;SDS011;9231;48.852;9.882;2023-04-21T00:24:43;250.03;;;18.30;;
18210;SDS011;9231;48.852;9.882;2023-04-21T00:27:09;96.03;;;15.57;;
18210;SDS011;9231;48.852;9.882;2023-04-21T00:29:37;313.00;;;21.13;;
18210;SDS011;9231;48.852;9.882;2023-04-21T00:32:06;163.70;;;17.07;;
18210;SDS011;9231;48.852;9.882;2023-04-21T00:34:36;174.97;;;19.07;;
18210;SDS011;9231;48.852;9.882;2023-04-21T00:37:03;46.17;;;14.93;;
18210;SDS011;9231;48.852;9.882;2023-04-21T00:39:29;86.40;;;15.13;;
18210;SDS011;9231;48.852;9.882;2023-04-21T00:41:56;110.10;;;14.47;;
18210;SDS011;9231;48.852;9.882;2023-04-21T00:44:22;78.60;;;15.20;;
18210;SDS011;9231;48.852;9.882;2023-04-21T00:46:49;29.73;;;14.10;;
18210;SDS011;9231;48.852;9.882;2023-04-21T00:49:15;19.67;;;13.47;;
18210;SDS011;9231;48.852;9.882;2023-04-21T00:51:43;33.77;;;12.80;;
18210;SDS011;9231;48.852;9.882;2023-04-21T00:54:10;29.57;;;13.30;;
18210;SDS011;9231;48.852;9.882;2023-04-21T00:56:37;78.50;;;15.83;;
18210;SDS011;9231;48.852;9.882;2023-04-21T00:59:03;30.97;;;13.17;;
18210;SDS011;9231;48.852;9.882;2023-04-21T01:01:30;13.63;;;12.10;;
18210;SDS011;9231;48.852;9.882;2023-04-21T01:03:58;26.43;;;11.70;;
18210;SDS011;9231;48.852;9.882;2023-04-21T01:06:28;22.87;;;11.77;;
18210;SDS011;9231;48.852;9.882;2023-04-21T01:08:58;17.87;;;10.47;;
18210;SDS011;9231;48.852;9.882;2023-04-21T01:11:25;29.67;;;11.13;;
18210;SDS011;9231;48.852;9.882;2023-04-21T01:13:51;28.97;;;11.17;;
18210;SDS011;9231;48.852;9.882;2023-04-21T01:16:18;13.43;;;10.47;;
18210;SDS011;9231;48.852;9.882;2023-04-21T01:18:45;11.60;;;10.40;;
18210;SDS011;9231;48.852;9.882;2023-04-21T01:21:11;15.80;;;10.70;;
18210;SDS011;9231;48.852;9.882;2023-04-21T01:23:42;16.63;;;11.70;;
18210;SDS011;9231;48.852;9.882;2023-04-21T01:26:09;14.30;;;12.00;;
18210;SDS011;9231;48.852;9.882;2023-04-21T01:28:35;14.10;;;12.37;;
18210;SDS011;9231;48.852;9.882;2023-04-21T01:31:02;14.10;;;12.27;;
18210;SDS011;9231;48.852;9.882;2023-04-21T01:33:29;15.50;;;13.07;;
18210;SDS011;9231;48.852;9.882;2023-04-21T01:35:58;19.37;;;13.67;;
18210;SDS011;9231;48.852;9.882;2023-04-21T01:38:25;15.93;;;14.23;;
18210;SDS011;9231;48.852;9.882;2023-04-21T01:40:54;103.20;;;16.43;;
18210;SDS011;9231;48.852;9.882;2023-04-21T01:43:21;49.40;;;14.77;;
18210;SDS011;9231;48.852;9.882;2023-04-21T01:45:48;54.30;;;14.30;;
18210;SDS011;9231;48.852;9.882;2023-04-21T01:48:15;74.53;;;14.73;;
18210;SDS011;9231;48.852;9.882;2023-04-21T01:50:41;72.17;;;13.90;;
18210;SDS011;9231;48.852;9.882;2023-04-21T01:53:08;21.83;;;13.83;;
18210;SDS011;9231;48.852;9.882;2023-04-21T01:55:34;17.60;;;13.57;;
18210;SDS011;9231;48.852;9.882;2023-04-21T01:58:02;15.60;;;12.87;;
18210;SDS011;9231;48.852;9.882;2023-04-21T02:00:29;16.00;;;14.27;;
18210;SDS011;9231;48.852;9.882;2023-04-21T02:02:55;16.27;;;13.63;;
18210;SDS011;9231;48.852;9.882;2023-04-21T02:05:22;14.73;;;13.00;;
18210;SDS011;9231;48.852;9.882;2023-04-21T02:07:48;16.13;;;13.53;;
18210;SDS011;9231;48.852;9.882;2023-04-21T02:10:15;17.70;;;13.00;;
18210;SDS011;9231;48.852;9.882;2023-04-21T02:12:41;13.60;;;12.10;;
18210;SDS011;9231;48.852;9.882;2023-04-21T02:15:10;14.93;;;12.80;;
18210;SDS011;9231;48.852;9.882;2023-04-21T02:17:37;12.90;;;11.50;;
18210;SDS011;9231;48.852;9.882;2023-04-21T02:20:08;14.83;;;13.27;;
18210;SDS011;9231;48.852;9.882;2023-04-21T02:22:36;14.60;;;12.50;;
18210;SDS011;9231;48.852;9.882;2023-04-21T02:25:02;13.60;;;12.13;;
18210;SDS011;9231;48.852;9.882;2023-04-21T02:27:29;14.53;;;12.97;;
18210;SDS011;9231;48.852;9.882;2023-04-21T02:29:56;15.47;;;13.03;;
18210;SDS011;9231;48.852;9.882;2023-04-21T02:32:24;15.70;;;13.10;;
18210;SDS011;9231;48.852;9.882;2023-04-21T02:34:50;15.87;;;12.97;;
18210;SDS011;9231;48.852;9.882;2023-04-21T02:37:16;14.87;;;12.50;;
18210;SDS011;9231;48.852;9.882;2023-04-21T02:39:43;14.43;;;12.00;;
18210;SDS011;9231;48.852;9.882;2023-04-21T02:42:10;19.80;;;14.90;;
18210;SDS011;9231;48.852;9.882;2023-04-21T02:44:36;21.13;;;14.37;;
18210;SDS011;9231;48.852;9.882;2023-04-21T02:47:03;15.13;;;12.80;;
18210;SDS011;9231;48.852;9.882;2023-04-21T02:49:31;15.57;;;13.20;;
18210;SDS011;9231;48.852;9.882;2023-04-21T02:51:57;14.73;;;12.43;;
18210;SDS011;9231;48.852;9.882;2023-04-21T02:54:24;16.57;;;13.00;;
18210;SDS011;9231;48.852;9.882;2023-04-21T02:56:50;14.50;;;12.17;;
18210;SDS011;9231;48.852;9.882;2023-04-21T02:59:17;15.83;;;13.10;;
18210;SDS011;9231;48.852;9.882;2023-04-21T03:01:46;17.50;;;13.53;;
18210;SDS011;9231;48.852;9.882;2023-04-21T03:04:15;15.57;;;13.30;;
18210;SDS011;9231;48.852;9.882;2023-04-21T03:06:43;17.10;;;13.60;;
18210;SDS011;9231;48.852;9.882;2023-04-21T03:09:09;16.57;;;13.50;;
18210;SDS011;9231;48.852;9.882;2023-04-21T03:11:35;16.73;;;12.87;;
18210;SDS011;9231;48.852;9.882;2023-04-21T03:14:02;16.30;;;13.30;;
18210;SDS011;9231;48.852;9.882;2023-04-21T03:16:28;16.03;;;12.90;;
18210;SDS011;9231;48.852;9.882;2023-04-21T03:18:58;15.73;;;13.30;;
18210;SDS011;9231;48.852;9.882;2023-04-21T03:21:24;22.37;;;14.87;;
18210;SDS011;9231;48.852;9.882;2023-04-21T03:23:52;184.80;;;18.50;;
18210;SDS011;9231;48.852;9.882;2023-04-21T03:26:19;20.30;;;11.67;;
18210;SDS011;9231;48.852;9.882;2023-04-21T03:28:48;13.90;;;11.73;;
18210;SDS011;9231;48.852;9.882;2023-04-21T03:31:14;15.40;;;12.67;;
18210;SDS011;9231;48.852;9.882;2023-04-21T03:33:41;17.93;;;12.63;;
18210;SDS011;9231;48.852;9.882;2023-04-21T03:36:07;46.07;;;14.70;;
18210;SDS011;9231;48.852;9.882;2023-04-21T03:38:36;22.13;;;16.67;;
18210;SDS011;9231;48.852;9.882;2023-04-21T03:41:04;18.93;;;15.57;;
18210;SDS011;9231;48.852;9.882;2023-04-21T03:43:32;17.47;;;14.67;;
18210;SDS011;9231;48.852;9.882;2023-04-21T03:46:00;22.43;;;14.50;;
18210;SDS011;9231;48.852;9.882;2023-04-21T03:48:27;16.57;;;14.23;;
18210;SDS011;9231;48.852;9.882;2023-04-21T03:50:53;17.50;;;13.60;;
18210;SDS011;9231;48.852;9.882;2023-04-21T03:53:20;17.13;;;13.60;;
18210;SDS011;9231;48.852;9.882;2023-04-21T03:55:48;15.00;;;12.80;;
18210;SDS011;9231;48.852;9.882;2023-04-21T03:58:16;16.47;;;13.53;;
18210;SDS011;9231;48.852;9.882;2023-04-21T04:00:43;16.57;;;12.50;;
18210;SDS011;9231;48.852;9.882;2023-04-21T04:03:09;16.13;;;13.10;;
18210;SDS011;9231;48.852;9.882;2023-04-21T04:05:35;14.57;;;12.93;;
18210;SDS011;9231;48.852;9.882;2023-04-21T04:08:02;390.97;;;23.30;;
18210;SDS011;9231;48.852;9.882;2023-04-21T04:10:28;903.27;;;39.63;;
18210;SDS011;9231;48.852;9.882;2023-04-21T04:12:55;173.40;;;16.20;;
18210;SDS011;9231;48.852;9.882;2023-04-21T04:15:23;111.07;;;14.53;;
18210;SDS011;9231;48.852;9.882;2023-04-21T04:17:49;42.50;;;13.60;;
18210;SDS011;9231;48.852;9.882;2023-04-21T04:20:16;15.63;;;12.00;;
18210;SDS011;9231;48.852;9.882;2023-04-21T04:22:42;13.20;;;11.17;;
18210;SDS011;9231;48.852;9.882;2023-04-21T04:25:08;37.03;;;13.07;;
18210;SDS011;9231;48.852;9.882;2023-04-21T04:27:36;51.03;;;12.47;;
18210;SDS011;9231;48.852;9.882;2023-04-21T04:30:03;105.63;;;13.20;;
18210;SDS011;9231;48.852;9.882;2023-04-21T04:32:32;129.17;;;14.27;;
18210;SDS011;9231;48.852;9.882;2023-04-21T04:35:01;34.37;;;12.77;;
18210;SDS011;9231;48.852;9.882;2023-04-21T04:37:28;116.00;;;13.90;;
18210;SDS011;9231;48.852;9.882;2023-04-21T04:39:55;173.43;;;16.40;;
18210;SDS011;9231;48.852;9.882;2023-04-21T04:42:22;276.93;;;18.37;;
18210;SDS011;9231;48.852;9.882;2023-04-21T04:44:51;259.87;;;18.60;;
18210;SDS011;9231;48.852;9.882;2023-04-21T04:47:21;210.47;;;16.70;;
18210;SDS011;9231;48.852;9.882;2023-04-21T04:49:51;175.30;;;15.93;;
18210;SDS011;9231;48.852;9.882;2023-04-21T04:52:18;238.37;;;19.97;;
18210;SDS011;9231;48.852;9.882;2023-04-21T04:54:47;138.23;;;16.93;;
18210;SDS011;9231;48.852;9.882;2023-04-21T04:57:14;383.13;;;25.83;;
18210;SDS011;9231;48.852;9.882;2023-04-21T04:59:40;265.47;;;22.13;;
18210;SDS011;9231;48.852;9.882;2023-04-21T05:02:06;146.80;;;15.23;;
18210;SDS011;9231;48.852;9.882;2023-04-21T05:04:33;119.17;;;15.53;;
18210;SDS011;9231;48.852;9.882;2023-04-21T05:07:01;168.43;;;18.07;;
18210;SDS011;9231;48.852;9.882;2023-04-21T05:09:30;293.90;;;21.47;;
18210;SDS011;9231;48.852;9.882;2023-04-21T05:11:56;103.47;;;14.97;;
18210;SDS011;9231;48.852;9.882;2023-04-21T05:14:23;117.67;;;13.63;;
18210;SDS011;9231;48.852;9.882;2023-04-21T05:16:49;81.23;;;12.80;;
18210;SDS011;9231;48.852;9.882;2023-04-21T05:19:15;54.70;;;12.53;;
18210;SDS011;9231;48.852;9.882;2023-04-21T05:21:42;32.10;;;12.57;;
18210;SDS011;9231;48.852;9.882;2023-04-21T05:24:10;98.07;;;14.40;;
18210;SDS011;9231;48.852;9.882;2023-04-21T05:26:36;124.83;;;16.67;;
18210;SDS011;9231;48.852;9.882;2023-04-21T05:29:03;250.37;;;20.70;;
18210;SDS011;9231;48.852;9.882;2023-04-21T05:31:29;32.80;;;12.93;;
18210;SDS011;9231;48.852;9.882;2023-04-21T05:33:57;25.43;;;12.87;;
18210;SDS011;9231;48.852;9.882;2023-04-21T05:36:23;21.77;;;11.07;;
18210;SDS011;9231;48.852;9.882;2023-04-21T05:38:50;73.67;;;12.10;;
18210;SDS011;9231;48.852;9.882;2023-04-21T05:41:17;70.93;;;12.37;;
18210;SDS011;9231;48.852;9.882;2023-04-21T05:43:45;144.90;;;15.40;;
18210;SDS011;9231;48.852;9.882;2023-04-21T05:46:12;72.00;;;12.90;;
18210;SDS011;9231;48.852;9.882;2023-04-21T05:48:39;123.70;;;15.53;;
18210;SDS011;9231;48.852;9.882;2023-04-21T05:51:09;90.67;;;13.57;;
18210;SDS011;9231;48.852;9.882;2023-04-21T05:53:35;19.13;;;10.17;;
18210;SDS011;9231;48.852;9.882;2023-04-21T05:56:02;20.20;;;10.33;;
18210;SDS011;9231;48.852;9.882;2023-04-21T05:58:30;32.13;;;11.47;;
18210;SDS011;9231;48.852;9.882;2023-04-21T06:00:56;23.10;;;10.73;;
18210;SDS011;9231;48.852;9.882;2023-04-21T06:03:23;22.00;;;11.63;;
18210;SDS011;9231;48.852;9.882;2023-04-21T06:05:52;61.27;;;13.33;;
18210;SDS011;9231;48.852;9.882;2023-04-21T06:08:18;136.30;;;14.93;;
18210;SDS011;9231;48.852;9.882;2023-04-21T06:10:45;52.50;;;12.47;;
18210;SDS011;9231;48.852;9.882;2023-04-21T06:13:11;49.00;;;11.77;;
18210;SDS011;9231;48.852;9.882;2023-04-21T06:15:39;50.70;;;11.83;;
18210;SDS011;9231;48.852;9.882;2023-04-21T06:18:05;87.53;;;11.37;;
18210;SDS011;9231;48.852;9.882;2023-04-21T06:20:32;66.43;;;11.27;;
18210;SDS011;9231;48.852;9.882;2023-04-21T06:22:58;32.23;;;10.77;;
18210;SDS011;9231;48.852;9.882;2023-04-21T06:25:25;32.33;;;11.83;;
18210;SDS011;9231;48.852;9.882;2023-04-21T06:27:51;43.43;;;12.37;;
18210;SDS011;9231;48.852;9.882;2023-04-21T06:30:18;24.03;;;11.20;;
18210;SDS011;9231;48.852;9.882;2023-04-21T06:32:46;23.67;;;12.77;;
18210;SDS011;9231;48.852;9.882;2023-04-21T06:35:12;13.97;;;11.20;;
18210;SDS011;9231;48.852;9.882;2023-04-21T06:37:39;35.13;;;13.47;;
18210;SDS011;9231;48.852;9.882;2023-04-21T06:40:06;22.53;;;12.60;;
18210;SDS011;9231;48.852;9.882;2023-04-21T06:42:33;19.40;;;11.70;;
18210;SDS011;9231;48.852;9.882;2023-04-21T06:44:59;13.57;;;11.10;;
18210;SDS011;9231;48.852;9.882;2023-04-21T06:47:26;14.10;;;11.60;;
18210;SDS011;9231;48.852;9.882;2023-04-21T06:49:54;15.77;;;12.13;;
18210;SDS011;9231;48.852;9.882;2023-04-21T06:55:22;12.77;;;11.20;;
18210;SDS011;9231;48.852;9.882;2023-04-21T06:57:49;12.67;;;10.97;;
18210;SDS011;9231;48.852;9.882;2023-04-21T07:00:16;13.53;;;11.60;;
18210;SDS011;9231;48.852;9.882;2023-04-21T07:02:42;15.23;;;13.23;;
18210;SDS011;9231;48.852;9.882;2023-04-21T07:05:10;14.97;;;12.13;;
18210;SDS011;9231;48.852;9.882;2023-04-21T07:07:36;13.60;;;11.97;;
18210;SDS011;9231;48.852;9.882;2023-04-21T07:10:03;14.77;;;11.73;;
18210;SDS011;9231;48.852;9.882;2023-04-21T07:12:29;14.73;;;12.07;;
18210;SDS011;9231;48.852;9.882;2023-04-21T07:14:56;14.80;;;12.00;;
18210;SDS011;9231;48.852;9.882;2023-04-21T07:17:22;15.90;;;13.10;;
18210;SDS011;9231;48.852;9.882;2023-04-21T07:19:49;15.30;;;12.27;;
18210;SDS011;9231;48.852;9.882;2023-04-21T07:22:17;17.47;;;14.30;;
18210;SDS011;9231;48.852;9.882;2023-04-21T07:24:43;16.87;;;14.10;;
18210;SDS011;9231;48.852;9.882;2023-04-21T07:27:09;17.00;;;14.17;;
18210;SDS011;9231;48.852;9.882;2023-04-21T07:29:36;20.03;;;15.50;;
18210;SDS011;9231;48.852;9.882;2023-04-21T07:32:03;19.10;;;14.77;;
18210;SDS011;9231;48.852;9.882;2023-04-21T07:34:29;19.80;;;15.17;;
18210;SDS011;9231;48.852;9.882;2023-04-21T07:36:56;20.40;;;15.33;;
18210;SDS011;9231;48.852;9.882;2023-04-21T07:39:23;19.10;;;15.00;;
18210;SDS011;9231;48.852;9.882;2023-04-21T07:41:50;21.07;;;15.57;;
18210;SDS011;9231;48.852;9.882;2023-04-21T07:44:19;20.30;;;15.23;;
18210;SDS011;9231;48.852;9.882;2023-04-21T07:46:55;21.33;;;15.93;;
18210;SDS011;9231;48.852;9.882;2023-04-21T07:49:42;19.67;;;15.60;;
18210;SDS011;9231;48.852;9.882;2023-04-21T07:52:08;20.73;;;16.37;;
18210;SDS011;9231;48.852;9.882;2023-04-21T07:54:36;21.57;;;15.60;;
18210;SDS011;9231;48.852;9.882;2023-04-21T07:57:05;21.13;;;16.77;;
18210;SDS011;9231;48.852;9.882;2023-04-21T07:59:32;17.77;;;14.83;;
18210;SDS011;9231;48.852;9.882;2023-04-21T08:01:58;21.07;;;15.80;;
18210;SDS011;9231;48.852;9.882;2023-04-21T08:04:25;21.67;;;17.30;;
18210;SDS011;9231;48.852;9.882;2023-04-21T08:06:52;20.93;;;15.67;;
18210;SDS011;9231;48.852;9.882;2023-04-21T08:09:21;20.73;;;16.47;;
18210;SDS011;9231;48.852;9.882;2023-04-21T08:11:49;19.97;;;15.77;;
18210;SDS011;9231;48.852;9.882;2023-04-21T08:14:15;23.80;;;16.90;;
18210;SDS011;9231;48.852;9.882;2023-04-21T08:16:42;20.80;;;16.27;;
18210;SDS011;9231;48.852;9.882;2023-04-21T08:19:11;19.33;;;15.03;;
18210;SDS011;9231;48.852;9.882;2023-04-21T08:21:38;17.10;;;14.10;;
18210;SDS011;9231;48.852;9.882;2023-04-21T08:24:04;19.90;;;14.97;;
18210;SDS011;9231;48.852;9.882;2023-04-21T08:26:31;19.83;;;14.70;;
18210;SDS011;9231;48.852;9.882;2023-04-21T08:28:59;20.00;;;14.67;;
18210;SDS011;9231;48.852;9.882;2023-04-21T08:31:26;20.07;;;15.07;;
18210;SDS011;9231;48.852;9.882;2023-04-21T08:33:52;23.47;;;15.60;;
18210;SDS011;9231;48.852;9.882;2023-04-21T08:36:19;21.07;;;16.17;;
18210;SDS011;9231;48.852;9.882;2023-04-21T08:38:50;19.67;;;14.97;;
18210;SDS011;9231;48.852;9.882;2023-04-21T08:41:16;19.87;;;15.00;;
18210;SDS011;9231;48.852;9.882;2023-04-21T08:43:43;21.20;;;15.43;;
18210;SDS011;9231;48.852;9.882;2023-04-21T08:46:11;18.53;;;15.27;;
18210;SDS011;9231;48.852;9.882;2023-04-21T08:48:39;18.33;;;14.13;;
18210;SDS011;9231;48.852;9.882;2023-04-21T08:51:06;18.97;;;14.83;;
18210;SDS011;9231;48.852;9.882;2023-04-21T08:53:35;16.43;;;14.07;;
18210;SDS011;9231;48.852;9.882;2023-04-21T08:56:01;20.80;;;13.33;;
18210;SDS011;9231;48.852;9.882;2023-04-21T08:58:30;15.67;;;12.23;;
18210;SDS011;9231;48.852;9.882;2023-04-21T09:00:57;14.13;;;11.97;;
18210;SDS011;9231;48.852;9.882;2023-04-21T09:03:25;16.90;;;13.00;;
18210;SDS011;9231;48.852;9.882;2023-04-21T09:05:58;12.93;;;10.87;;
18210;SDS011;9231;48.852;9.882;2023-04-21T09:08:25;11.97;;;10.77;;
18210;SDS011;9231;48.852;9.882;2023-04-21T09:10:53;12.47;;;10.90;;
18210;SDS011;9231;48.852;9.882;2023-04-21T09:13:19;13.13;;;11.73;;
18210;SDS011;9231;48.852;9.882;2023-04-21T09:15:48;14.63;;;11.23;;
18210;SDS011;9231;48.852;9.882;2023-04-21T09:18:16;13.90;;;12.07;;
18210;SDS011;9231;48.852;9.882;2023-04-21T09:20:44;13.57;;;11.03;;
18210;SDS011;9231;48.852;9.882;2023-04-21T09:23:15;15.00;;;11.57;;
18210;SDS011;9231;48.852;9.882;2023-04-21T09:25:43;14.20;;;10.83;;
18210;SDS011;9231;48.852;9.882;2023-04-21T09:28:10;11.73;;;10.23;;
18210;SDS011;9231;48.852;9.882;2023-04-21T09:30:37;12.77;;;10.70;;
18210;SDS011;9231;48.852;9.882;2023-04-21T09:33:13;13.20;;;10.73;;
18210;SDS011;9231;48.852;9.882;2023-04-21T09:35:40;14.87;;;10.70;;
18210;SDS011;9231;48.852;9.882;2023-04-21T09:38:10;12.33;;;10.53;;
18210;SDS011;9231;48.852;9.882;2023-04-21T09:40:36;13.37;;;10.23;;
18210;SDS011;9231;48.852;9.882;2023-04-21T09:43:04;11.63;;;10.17;;
18210;SDS011;9231;48.852;9.882;2023-04-21T09:45:31;10.83;;;9.63;;
18210;SDS011;9231;48.852;9.882;2023-04-21T09:47:58;12.07;;;9.67;;
18210;SDS011;9231;48.852;9.882;2023-04-21T09:50:26;10.87;;;9.40;;
18210;SDS011;9231;48.852;9.882;2023-04-21T09:52:55;12.43;;;10.50;;
18210;SDS011;9231;48.852;9.882;2023-04-21T09:55:24;10.03;;;8.67;;
18210;SDS011;9231;48.852;9.882;2023-04-21T09:57:51;11.30;;;9.57;;
18210;SDS011;9231;48.852;9.882;2023-04-21T10:00:23;12.03;;;10.00;;
18210;SDS011;9231;48.852;9.882;2023-04-21T10:02:52;9.83;;;8.73;;
18210;SDS011;9231;48.852;9.882;2023-04-21T10:05:19;10.40;;;9.30;;
18210;SDS011;9231;48.852;9.882;2023-04-21T10:07:46;9.97;;;8.93;;
18210;SDS011;9231;48.852;9.882;2023-04-21T10:10:15;12.27;;;9.17;;
18210;SDS011;9231;48.852;9.882;2023-04-21T10:12:48;10.80;;;9.53;;
18210;SDS011;9231;48.852;9.882;2023-04-21T10:18:18;11.23;;;9.83;;
18210;SDS011;9231;48.852;9.882;2023-04-21T10:20:49;9.40;;;8.40;;
18210;SDS011;9231;48.852;9.882;2023-04-21T10:23:24;13.27;;;10.17;;
18210;SDS011;9231;48.852;9.882;2023-04-21T10:25:51;13.43;;;10.10;;
18210;SDS011;9231;48.852;9.882;2023-04-21T10:28:21;11.40;;;10.13;;
18210;SDS011;9231;48.852;9.882;2023-04-21T10:31:15;11.30;;;9.73;;
18210;SDS011;9231;48.852;9.882;2023-04-21T10:33:41;12.07;;;10.77;;
18210;SDS011;9231;48.852;9.882;2023-04-21T10:36:10;11.13;;;10.00;;
18210;SDS011;9231;48.852;9.882;2023-04-21T10:38:40;13.23;;;11.10;;
18210;SDS011;9231;48.852;9.882;2023-04-21T10:41:11;11.73;;;10.00;;
18210;SDS011;9231;48.852;9.882;2023-04-21T10:43:52;11.80;;;10.10;;
18210;SDS011;9231;48.852;9.882;2023-04-21T10:46:34;11.60;;;9.07;;
18210;SDS011;9231;48.852;9.882;2023-04-21T10:49:04;10.53;;;9.50;;
18210;SDS011;9231;48.852;9.882;2023-04-21T10:51:31;10.23;;;9.17;;
18210;SDS011;9231;48.852;9.882;2023-04-21T10:53:58;11.03;;;9.53;;
18210;SDS011;9231;48.852;9.882;2023-04-21T10:56:27;9.67;;;8.10;;
18210;SDS011;9231;48.852;9.882;2023-04-21T10:58:57;9.13;;;8.07;;
18210;SDS011;9231;48.852;9.882;2023-04-21T11:01:25;10.13;;;8.80;;
18210;SDS011;9231;48.852;9.882;2023-04-21T11:03:55;9.27;;;7.90;;
18210;SDS011;9231;48.852;9.882;2023-04-21T11:06:27;9.40;;;8.50;;
18210;SDS011;9231;48.852;9.882;2023-04-21T11:08:55;8.57;;;7.63;;
18210;SDS011;9231;48.852;9.882;2023-04-21T11:11:22;9.07;;;8.17;;
18210;SDS011;9231;48.852;9.882;2023-04-21T11:13:51;8.23;;;7.43;;
18210;SDS011;9231;48.852;9.882;2023-04-21T11:16:24;9.30;;;8.30;;
18210;SDS011;9231;48.852;9.882;2023-04-21T11:18:53;8.50;;;7.60;;
18210;SDS011;9231;48.852;9.882;2023-04-21T11:21:21;10.13;;;7.90;;
18210;SDS011;9231;48.852;9.882;2023-04-21T11:23:49;8.43;;;7.40;;
18210;SDS011;9231;48.852;9.882;2023-04-21T11:26:28;8.37;;;7.33;;
18210;SDS011;9231;48.852;9.882;2023-04-21T11:28:58;8.67;;;7.17;;
18210;SDS011;9231;48.852;9.882;2023-04-21T11:31:30;8.60;;;7.23;;
18210;SDS011;9231;48.852;9.882;2023-04-21T11:33:58;8.27;;;6.97;;
18210;SDS011;9231;48.852;9.882;2023-04-21T11:36:35;7.03;;;6.27;;
18210;SDS011;9231;48.852;9.882;2023-04-21T11:39:10;6.07;;;5.47;;
18210;SDS011;9231;48.852;9.882;2023-04-21T11:41:56;7.07;;;6.37;;
18210;SDS011;9231;48.852;9.882;2023-04-21T11:44:52;7.67;;;6.90;;
18210;SDS011;9231;48.852;9.882;2023-04-21T11:47:34;6.50;;;5.90;;
18210;SDS011;9231;48.852;9.882;2023-04-21T11:53:35;8.43;;;5.57;;
18210;SDS011;9231;48.852;9.882;2023-04-21T11:56:23;6.27;;;5.53;;
18210;SDS011;9231;48.852;9.882;2023-04-21T11:58:58;7.70;;;5.40;;
18210;SDS011;9231;48.852;9.882;2023-04-21T12:01:49;7.23;;;5.67;;
18210;SDS011;9231;48.852;9.882;2023-04-21T12:07:23;6.97;;;5.87;;
18210;SDS011;9231;48.852;9.882;2023-04-21T12:10:08;6.35;;;5.50;;
18210;SDS011;9231;48.852;9.882;2023-04-21T12:15:34;6.30;;;4.85;;
18210;SDS011;9231;48.852;9.882;2023-04-21T12:24:36;5.78;;;5.18;;
18210;SDS011;9231;48.852;9.882;2023-04-21T12:28:28;5.15;;;4.65;;
18210;SDS011;9231;48.852;9.882;2023-04-21T12:30:17;5.32;;;4.63;;
18210;SDS011;9231;48.852;9.882;2023-04-21T12:39:04;5.18;;;4.35;;
18210;SDS011;9231;48.852;9.882;2023-04-21T12:41:37;5.10;;;4.60;;
18210;SDS011;9231;48.852;9.882;2023-04-21T12:44:14;6.60;;;4.50;;
18210;SDS011;9231;48.852;9.882;2023-04-21T12:46:50;5.88;;;4.40;;
18210;SDS011;9231;48.852;9.882;2023-04-21T12:49:17;5.53;;;4.68;;
18210;SDS011;9231;48.852;9.882;2023-04-21T13:00:54;4.32;;;3.92;;
18210;SDS011;9231;48.852;9.882;2023-04-21T13:03:21;4.28;;;3.88;;
18210;SDS011;9231;48.852;9.882;2023-04-21T13:05:47;4.53;;;3.30;;
18210;SDS011;9231;48.852;9.882;2023-04-21T13:08:14;3.85;;;3.55;;
18210;SDS011;9231;48.852;9.882;2023-04-21T13:10:40;4.85;;;3.97;;
18210;SDS011;9231;48.852;9.882;2023-04-21T13:13:07;4.90;;;3.33;;
18210;SDS011;9231;48.852;9.882;2023-04-21T13:15:34;4.35;;;3.85;;
18210;SDS011;9231;48.852;9.882;2023-04-21T13:18:01;3.80;;;3.50;;
18210;SDS011;9231;48.852;9.882;2023-04-21T13:20:28;4.10;;;3.70;;
18210;SDS011;9231;48.852;9.882;2023-04-21T13:22:55;3.22;;;2.92;;
18210;SDS011;9231;48.852;9.882;2023-04-21T13:25:21;3.70;;;3.40;;
18210;SDS011;9231;48.852;9.882;2023-04-21T13:27:48;3.35;;;3.05;;
18210;SDS011;9231;48.852;9.882;2023-04-21T13:30:14;3.63;;;3.20;;
18210;SDS011;9231;48.852;9.882;2023-04-21T13:32:41;3.38;;;3.08;;
18210;SDS011;9231;48.852;9.882;2023-04-21T13:35:09;3.40;;;3.10;;
18210;SDS011;9231;48.852;9.882;2023-04-21T13:37:36;3.15;;;2.80;;
18210;SDS011;9231;48.852;9.882;2023-04-21T13:40:04;3.45;;;3.15;;
18210;SDS011;9231;48.852;9.882;2023-04-21T13:42:30;2.97;;;2.65;;
18210;SDS011;9231;48.852;9.882;2023-04-21T13:44:57;3.10;;;2.85;;
18210;SDS011;9231;48.852;9.882;2023-04-21T13:47:24;3.63;;;2.97;;
18210;SDS011;9231;48.852;9.882;2023-04-21T13:49:50;3.35;;;3.05;;
18210;SDS011;9231;48.852;9.882;2023-04-21T13:52:18;3.97;;;2.78;;
18210;SDS011;9231;48.852;9.882;2023-04-21T13:54:45;3.15;;;2.90;;
18210;SDS011;9231;48.852;9.882;2023-04-21T13:57:11;4.55;;;2.90;;
18210;SDS011;9231;48.852;9.882;2023-04-21T13:59:38;3.30;;;3.00;;
18210;SDS011;9231;48.852;9.882;2023-04-21T14:02:05;3.50;;;3.20;;
18210;SDS011;9231;48.852;9.882;2023-04-21T14:04:32;3.28;;;2.63;;
18210;SDS011;9231;48.852;9.882;2023-04-21T14:06:59;3.00;;;2.75;;
18210;SDS011;9231;48.852;9.882;2023-04-21T14:09:27;3.10;;;2.50;;
18210;SDS011;9231;48.852;9.882;2023-04-21T14:11:53;2.55;;;2.35;;
18210;SDS011;9231;48.852;9.882;2023-04-21T14:14:21;4.57;;;2.50;;
18210;SDS011;9231;48.852;9.882;2023-04-21T14:16:48;2.60;;;2.38;;
18210;SDS011;9231;48.852;9.882;2023-04-21T14:19:14;2.90;;;2.70;;
18210;SDS011;9231;48.852;9.882;2023-04-21T14:21:41;3.10;;;2.47;;
18210;SDS011;9231;48.852;9.882;2023-04-21T14:24:07;2.60;;;2.40;;
18210;SDS011;9231;48.852;9.882;2023-04-21T14:26:35;5.82;;;2.75;;
18210;SDS011;9231;48.852;9.882;2023-04-21T14:29:02;4.97;;;3.00;;
18210;SDS011;9231;48.852;9.882;2023-04-21T14:31:31;2.63;;;2.42;;
18210;SDS011;9231;48.852;9.882;2023-04-21T14:33:58;2.50;;;2.30;;
18210;SDS011;9231;48.852;9.882;2023-04-21T14:36:27;3.05;;;2.28;;
18210;SDS011;9231;48.852;9.882;2023-04-21T14:38:54;2.40;;;2.20;;
18210;SDS011;9231;48.852;9.882;2023-04-21T14:41:20;2.50;;;2.30;;
18210;SDS011;9231;48.852;9.882;2023-04-21T14:43:48;3.60;;;2.10;;
18210;SDS011;9231;48.852;9.882;2023-04-21T14:46:18;2.60;;;2.10;;
18210;SDS011;9231;48.852;9.882;2023-04-21T14:48:44;2.75;;;2.55;;
18210;SDS011;9231;48.852;9.882;2023-04-21T14:51:11;4.30;;;2.58;;
18210;SDS011;9231;48.852;9.882;2023-04-21T14:53:37;2.60;;;2.28;;
18210;SDS011;9231;48.852;9.882;2023-04-21T14:56:04;2.60;;;2.22;;
18210;SDS011;9231;48.852;9.882;2023-04-21T14:58:31;2.45;;;2.25;;
18210;SDS011;9231;48.852;9.882;2023-04-21T15:00:59;2.30;;;2.10;;
18210;SDS011;9231;48.852;9.882;2023-04-21T15:03:25;2.35;;;2.15;;
18210;SDS011;9231;48.852;9.882;2023-04-21T15:05:54;2.20;;;2.00;;
18210;SDS011;9231;48.852;9.882;2023-04-21T15:08:21;3.97;;;2.30;;
18210;SDS011;9231;48.852;9.882;2023-04-21T15:10:48;2.50;;;2.22;;
18210;SDS011;9231;48.852;9.882;2023-04-21T15:13:14;2.78;;;2.50;;
18210;SDS011;9231;48.852;9.882;2023-04-21T15:15:41;2.88;;;2.30;;
18210;SDS011;9231;48.852;9.882;2023-04-21T15:18:09;2.58;;;2.17;;
18210;SDS011;9231;48.852;9.882;2023-04-21T15:20:35;1.63;;;1.52;;
18210;SDS011;9231;48.852;9.882;2023-04-21T15:23:03;2.05;;;1.20;;